Tufão IVAN 1997: trajetória, intensidade e histórico
26/10/1997, 18:00:00
9/10/1997, 12:00:00 – 26/10/1997, 18:00:00
Trajetória histórica
Acompanhe a evolução e o deslocamento de Tufão IVAN em 1997, com a trajetória completa registrada, ventos máximos sustentados de 160 nós, pressão central mínima e cronologia detalhada.
| Data | Hora | Tipo | Ventokm/h | PressãohPa |
|---|---|---|---|---|
| 26/10 | 18:00 | EXCiclone extratropical | -- | 1000 |
| 26/10 | 15:00 | EXCiclone extratropical | -- | 1000 |
| 26/10 | 12:00 | EXCiclone extratropical | -- | 1000 |
| 26/10 | 09:00 | EXCiclone extratropical | -- | 1000 |
| 26/10 | 06:00 | EXCiclone extratropical | -- | 1000 |
| 26/10 | 03:00 | EXCiclone extratropical | -- | 1000 |
| 26/10 | 00:00 | EXCiclone extratropical | 85 | 1000 |
| 25/10 | 21:00 | EXCiclone extratropical | 85 | 1000 |
| 25/10 | 18:00 | EXCiclone extratropical | 85 | 1000 |
| 25/10 | 15:00 | EXCiclone extratropical | 85 | 1000 |
| 25/10 | 12:00 | EXCiclone extratropical | 85 | 1000 |
| 25/10 | 09:00 | EXCiclone extratropical | 85 | 999 |
| 25/10 | 06:00 | EXCiclone extratropical | 85 | 998 |
| 25/10 | 03:00 | TSTempestade tropical | 85 | 997 |
| 25/10 | 00:00 | TSTempestade tropical | 85 | 996 |
| 24/10 | 21:00 | STSTempestade tropical severa | 90 | 996 |
| 24/10 | 18:00 | TSTempestade tropical | 95 | 996 |
| 24/10 | 15:00 | STSTempestade tropical severa | 100 | 995 |
| 24/10 | 12:00 | TSTempestade tropical | 100 | 994 |
| 24/10 | 09:00 | STSTempestade tropical severa | 105 | 993 |
| 24/10 | 06:00 | TSTempestade tropical | 110 | 994 |
| 24/10 | 03:00 | TSTempestade tropical | 110 | 992 |
| 24/10 | 00:00 | TSTempestade tropical | 110 | 992 |
| 23/10 | 21:00 | TSTempestade tropical | 110 | 990 |
| 23/10 | 18:00 | TSTempestade tropical | 110 | 990 |
| 23/10 | 15:00 | TSTempestade tropical | 110 | 990 |
| 23/10 | 12:00 | TSTempestade tropical | 110 | 990 |
| 23/10 | 09:00 | TSTempestade tropical | 110 | 990 |
| 23/10 | 06:00 | TSTempestade tropical | 110 | 990 |
| 23/10 | 03:00 | TSTempestade tropical | 110 | 990 |
| 23/10 | 00:00 | TSTempestade tropical | 110 | 990 |
| 22/10 | 21:00 | STSTempestade tropical severa | 115 | 990 |
| 22/10 | 18:00 | TSTempestade tropical | 120 | 990 |
| 22/10 | 15:00 | TTufão | 120 | 990 |
| 22/10 | 12:00 | TSTempestade tropical | 120 | 990 |
| 22/10 | 09:00 | STSTempestade tropical severa | 115 | 990 |
| 22/10 | 06:00 | TSTempestade tropical | 110 | 990 |
| 22/10 | 03:00 | STSTempestade tropical severa | 110 | 990 |
| 22/10 | 00:00 | TSTempestade tropical | 110 | 990 |
| 21/10 | 21:00 | STSTempestade tropical severa | 110 | 988 |
| 21/10 | 18:00 | TSTempestade tropical | 110 | 990 |
| 21/10 | 15:00 | STSTempestade tropical severa | 110 | 985 |
| 21/10 | 12:00 | TSTempestade tropical | 110 | 990 |
| 21/10 | 09:00 | STSTempestade tropical severa | 115 | 983 |
| 21/10 | 06:00 | STSTempestade tropical severa | 120 | 985 |
| 21/10 | 03:00 | TTufão | 125 | 978 |
| 21/10 | 00:00 | STSTempestade tropical severa | 130 | 980 |
| 20/10 | 21:00 | TTufão | 140 | 973 |
| 20/10 | 18:00 | TTufão | 150 | 970 |
| 20/10 | 15:00 | TTufão | 155 | 965 |
| 20/10 | 12:00 | TTufão | 165 | 960 |
| 20/10 | 09:00 | TTufão | 175 | 958 |
| 20/10 | 06:00 | STSupertufão | 185 | 955 |
| 20/10 | 03:00 | STSupertufão | 195 | 950 |
| 20/10 | 00:00 | STSupertufão | 205 | 945 |
| 19/10 | 21:00 | STSupertufão | 215 | 940 |
| 19/10 | 18:00 | STSupertufão | 220 | 935 |
| 19/10 | 15:00 | STSupertufão | 230 | 930 |
| 19/10 | 12:00 | STSupertufão | 240 | 925 |
| 19/10 | 09:00 | STSupertufão | 245 | 923 |
| 19/10 | 06:00 | STSupertufão | 250 | 920 |
| 19/10 | 03:00 | STSupertufão | 255 | 918 |
| 19/10 | 00:00 | STSupertufão | 260 | 915 |
| 18/10 | 21:00 | STSupertufão | 260 | 915 |
| 18/10 | 18:00 | STSupertufão | 260 | 915 |
| 18/10 | 15:00 | STSupertufão | 265 | 913 |
| 18/10 | 12:00 | STSupertufão | 270 | 910 |
| 18/10 | 09:00 | STSupertufão | 270 | 908 |
| 18/10 | 06:00 | STSupertufão | 270 | 905 |
| 18/10 | 03:00 | STSupertufão | 275 | 905 |
| 18/10 | 00:00 | STSupertufão | 280 | 905 |
| 17/10 | 21:00 | STSupertufão | 285 | 905 |
| 17/10 | 18:00 | STSupertufão | 295 | 905 |
| 17/10 | 15:00 | STSupertufão | 295 | 905 |
| 17/10 | 12:00 | STSupertufão | 285 | 905 |
| 17/10 | 09:00 | STSupertufão | 280 | 910 |
| 17/10 | 06:00 | STSupertufão | 270 | 915 |
| 17/10 | 03:00 | STSupertufão | 265 | 920 |
| 17/10 | 00:00 | STSupertufão | 260 | 925 |
| 16/10 | 21:00 | STSupertufão | 240 | 933 |
| 16/10 | 18:00 | STSupertufão | 220 | 940 |
| 16/10 | 15:00 | STSupertufão | 210 | 945 |
| 16/10 | 12:00 | STSupertufão | 195 | 950 |
| 16/10 | 09:00 | STSupertufão | 185 | 955 |
| 16/10 | 06:00 | TTufão | 175 | 960 |
| 16/10 | 03:00 | TTufão | 165 | 965 |
| 16/10 | 00:00 | TTufão | 155 | 970 |
| 15/10 | 21:00 | TTufão | 155 | 975 |
| 15/10 | 18:00 | STSTempestade tropical severa | 150 | 980 |
| 15/10 | 15:00 | TTufão | 140 | 983 |
| 15/10 | 12:00 | STSTempestade tropical severa | 130 | 985 |
| 15/10 | 09:00 | TTufão | 125 | 988 |
| 15/10 | 06:00 | TSTempestade tropical | 120 | 990 |
| 15/10 | 03:00 | STSTempestade tropical severa | 115 | 991 |
| 15/10 | 00:00 | TSTempestade tropical | 110 | 992 |
| 14/10 | 21:00 | STSTempestade tropical severa | 105 | 993 |
| 14/10 | 18:00 | TSTempestade tropical | 100 | 994 |
| 14/10 | 15:00 | STSTempestade tropical severa | 100 | 995 |
| 14/10 | 12:00 | TSTempestade tropical | 95 | 996 |
| 14/10 | 09:00 | STSTempestade tropical severa | 90 | 997 |
| 14/10 | 06:00 | TSTempestade tropical | 85 | 998 |
| 14/10 | 03:00 | TSTempestade tropical | 80 | 1000 |
| 14/10 | 00:00 | TDDepressão tropical | 75 | 1000 |
| 13/10 | 21:00 | TSTempestade tropical | 75 | 1000 |
| 13/10 | 18:00 | TDDepressão tropical | 75 | 1002 |
| 13/10 | 15:00 | TSTempestade tropical | 70 | 1003 |
| 13/10 | 12:00 | TDDepressão tropical | 65 | 1004 |
| 13/10 | 09:00 | TDDepressão tropical | 55 | 1005 |
| 13/10 | 06:00 | TDDepressão tropical | 45 | 1006 |
| 13/10 | 03:00 | TDDepressão tropical | 45 | 1007 |
| 13/10 | 00:00 | TDDepressão tropical | 35 | 1008 |
| 12/10 | 21:00 | TDDepressão tropical | 35 | -- |
| 12/10 | 18:00 | TDDepressão tropical | 35 | -- |
| 12/10 | 15:00 | TDDepressão tropical | 35 | -- |
| 12/10 | 12:00 | TDDepressão tropical | 35 | -- |
| 12/10 | 09:00 | TDDepressão tropical | 35 | -- |
| 12/10 | 06:00 | TDDepressão tropical | 35 | -- |
| 12/10 | 03:00 | TDDepressão tropical | 35 | -- |
| 12/10 | 00:00 | TDDepressão tropical | 35 | -- |
| 11/10 | 21:00 | TDDepressão tropical | 35 | -- |
| 11/10 | 18:00 | TDDepressão tropical | 35 | -- |
| 11/10 | 15:00 | TDDepressão tropical | 35 | -- |
| 11/10 | 12:00 | TDDepressão tropical | 35 | -- |
| 11/10 | 09:00 | TDDepressão tropical | 35 | -- |
| 11/10 | 06:00 | TDDepressão tropical | 35 | -- |
| 11/10 | 03:00 | TDDepressão tropical | 35 | -- |
| 11/10 | 00:00 | TDDepressão tropical | 35 | -- |
| 10/10 | 21:00 | TDDepressão tropical | 35 | -- |
| 10/10 | 18:00 | TDDepressão tropical | 30 | -- |
| 10/10 | 15:00 | TDDepressão tropical | 30 | -- |
| 10/10 | 12:00 | TDDepressão tropical | 30 | -- |
| 10/10 | 09:00 | TDDepressão tropical | 30 | -- |
| 10/10 | 06:00 | TDDepressão tropical | 30 | -- |
| 10/10 | 03:00 | TDDepressão tropical | 30 | -- |
| 10/10 | 00:00 | TDDepressão tropical | 30 | -- |
| 09/10 | 21:00 | TDDepressão tropical | 30 | -- |
| 09/10 | 18:00 | TDDepressão tropical | 30 | -- |
| 09/10 | 15:00 | TDDepressão tropical | 30 | -- |
| 09/10 | 12:00 | TDDepressão tropical | 30 | -- |
Cronologia de localização
139 Registos de localizaçãoDetalhes do evento
Ligações das fontes
A localização, a extensão e o estado de cada evento podem ser atualizados em momentos diferentes consoante a fonte. Confirme decisões importantes junto das autoridades oficiais de emergência.
Os registos de eventos provêm da NASA EONET e são complementados por registos de deslizamentos de terra do USGS FDSN. As análises e previsões de tempestades podem utilizar a NOAA NHC ou o JTWC, com registos históricos ATCF da UCAR/NCAR quando disponíveis. As imagens de satélite provêm da NASA Worldview/GIBS (GOES e Himawari) ou da EUMETSAT Meteosat, consoante a cobertura do mapa.
Fontes: NASA EONET · USGS · NOAA NHC · JTWC · UCAR/NCAR ATCF · NASA Worldview/GIBS · EUMETSAT Meteosat · OpenStreetMap contributors